KPUW

Pullman / Moscow Regional Airport

Pullman/Moscow, Washington, USA
METAR KPUW 230953Z AUTO 00000KT 7SM FEW110 05/01 A2997 RMK AO2 SLP147 T00500006
Observed Flight Rules
Oct-23 @ 09:53 UTC (40 minutes ago) Visual Flight Rules
Visibility Clouds
7 miles
  • Few at 11,000' AGL
Temperatures Readings
Current 5°C / 41°F
Dewpoint 1°C / 34°F
Humidity 76%
Altimeter 29.97" Hg
Pressure 1014.7 hPa
Elevation 773
METAR KPUW 230953Z AUTO 00000KT 7SM FEW110 05/01 A2997 RMK AO2 SLP147 T00500006
Observed Flight Rules
Oct-23 @ 09:53 UTC
(40 minutes ago)
VFR
Clouds
  • Few at 11,000' AGL
Temperature Dewpoint
5°C / 41°F 1°C / 34°F
Humidity Altimeter Pressure
76% 29.97" Hg 1014.7 hPa